createdAt,value
2022-12-19T17:38:24.005Z,1012.65
2022-12-19T17:39:23.932Z,1012.58
2022-12-19T17:40:23.882Z,1012.59
2022-12-19T17:41:23.835Z,1012.53
2022-12-19T17:42:23.790Z,1012.55
2022-12-19T17:43:23.730Z,1012.53
2022-12-19T17:44:23.684Z,1012.57
2022-12-19T17:45:23.659Z,1012.64
2022-12-19T17:46:23.709Z,1012.67
2022-12-19T17:47:23.539Z,1012.64
2022-12-19T17:48:23.499Z,1012.66
2022-12-19T17:49:23.438Z,1012.66
2022-12-19T17:50:23.392Z,1012.63
2022-12-19T17:51:23.349Z,1012.65
2022-12-19T17:52:23.293Z,1012.65
2022-12-19T17:53:23.257Z,1012.70
2022-12-19T17:54:23.234Z,1012.65
2022-12-19T17:55:23.156Z,1012.62
2022-12-19T17:56:23.112Z,1012.69
2022-12-19T17:57:23.065Z,1012.69
2022-12-19T17:58:23.018Z,1012.72
2022-12-19T17:59:22.979Z,1012.74
2022-12-19T18:00:29.959Z,1012.76
2022-12-19T18:01:23.099Z,1012.73
2022-12-19T18:02:23.017Z,1012.79
2022-12-19T18:03:23.039Z,1012.74
2022-12-19T18:04:22.743Z,1012.74
2022-12-19T18:05:22.698Z,1012.78
2022-12-19T18:06:22.696Z,1012.74
2022-12-19T18:07:22.614Z,1012.76
2022-12-19T18:08:22.569Z,1012.77
2022-12-19T18:09:22.517Z,1012.81
2022-12-19T18:10:22.496Z,1012.77
2022-12-19T18:11:22.431Z,1012.82
2022-12-19T18:12:22.380Z,1012.79
2022-12-19T18:13:22.340Z,1012.80
2022-12-19T18:14:22.312Z,1012.81
2022-12-19T18:15:22.251Z,1012.83
2022-12-19T18:16:22.268Z,1012.74
2022-12-19T18:17:22.155Z,1012.78
2022-12-19T18:18:22.110Z,1012.79
2022-12-19T18:19:22.066Z,1012.80
2022-12-19T18:20:27.769Z,1012.83
2022-12-19T18:21:21.975Z,1012.76
2022-12-19T18:22:21.937Z,1012.78
2022-12-19T18:23:21.894Z,1012.74
2022-12-19T18:24:21.837Z,1012.75
2022-12-19T18:25:21.802Z,1012.75
2022-12-19T18:26:21.820Z,1012.74
2022-12-19T18:27:21.706Z,1012.72
2022-12-19T18:28:21.665Z,1012.70
2022-12-19T18:29:21.614Z,1012.74
2022-12-19T18:30:21.573Z,1012.72
2022-12-19T18:31:21.584Z,1012.73
2022-12-19T18:32:21.480Z,1012.76
2022-12-19T18:33:21.440Z,1012.70
2022-12-19T18:34:21.394Z,1012.72
2022-12-19T18:35:21.358Z,1012.71
2022-12-19T18:36:21.302Z,1012.75
2022-12-19T18:37:21.257Z,1012.72
2022-12-19T18:38:21.215Z,1012.71
2022-12-19T18:39:21.178Z,1012.69
2022-12-19T18:40:26.012Z,1012.62
2022-12-19T18:41:21.102Z,1012.62
2022-12-19T18:42:21.063Z,1012.61
2022-12-19T18:43:20.998Z,1012.63
2022-12-19T18:44:20.941Z,1012.64
2022-12-19T18:45:20.915Z,1012.58
2022-12-19T18:46:20.899Z,1012.59
2022-12-19T18:47:20.809Z,1012.59
2022-12-19T18:48:20.765Z,1012.65
2022-12-19T18:49:20.729Z,1012.69
2022-12-19T18:50:20.674Z,1012.69
2022-12-19T18:51:20.633Z,1012.61
2022-12-19T18:52:20.596Z,1012.63
2022-12-19T18:53:20.542Z,1012.62
2022-12-19T18:54:20.512Z,1012.62
2022-12-19T18:55:20.453Z,1012.55
2022-12-19T18:56:20.406Z,1012.59
2022-12-19T18:57:20.363Z,1012.63
2022-12-19T18:58:20.336Z,1012.61
2022-12-19T18:59:20.283Z,1012.63
2022-12-19T19:00:20.231Z,1012.58
2022-12-19T19:01:20.351Z,1012.59
2022-12-19T19:02:20.403Z,1012.62
2022-12-19T19:03:20.308Z,1012.60
2022-12-19T19:04:20.067Z,1012.58
2022-12-19T19:05:20.015Z,1012.54
2022-12-19T19:06:19.962Z,1012.62
2022-12-19T19:07:19.924Z,1012.62
2022-12-19T19:08:19.876Z,1012.63
2022-12-19T19:09:19.838Z,1012.61
2022-12-19T19:10:19.806Z,1012.63
2022-12-19T19:11:19.740Z,1012.67
2022-12-19T19:12:19.692Z,1012.68
2022-12-19T19:13:19.655Z,1012.70
2022-12-19T19:14:19.624Z,1012.71
2022-12-19T19:15:19.573Z,1012.71
2022-12-19T19:16:19.586Z,1012.70
2022-12-19T19:17:19.531Z,1012.69
2022-12-19T19:18:19.426Z,1012.70
2022-12-19T19:19:19.392Z,1012.66
2022-12-19T19:20:19.336Z,1012.61
2022-12-19T19:21:19.295Z,1012.68
2022-12-19T19:22:19.251Z,1012.64
2022-12-19T19:23:19.205Z,1012.60
2022-12-19T19:24:19.162Z,1012.55
2022-12-19T19:25:19.134Z,1012.57
2022-12-19T19:26:19.071Z,1012.59
2022-12-19T19:27:19.028Z,1012.66
2022-12-19T19:28:18.981Z,1012.69
2022-12-19T19:29:19.092Z,1012.61
2022-12-19T19:30:18.930Z,1012.67
2022-12-19T19:31:18.934Z,1012.67
2022-12-19T19:32:18.805Z,1012.69
2022-12-19T19:33:18.786Z,1012.74
2022-12-19T19:34:18.716Z,1012.74
2022-12-19T19:35:18.673Z,1012.72
2022-12-19T19:36:18.626Z,1012.73
2022-12-19T19:37:18.593Z,1012.70
2022-12-19T19:38:18.539Z,1012.72
2022-12-19T19:39:18.507Z,1012.73
2022-12-19T19:40:18.446Z,1012.72
2022-12-19T19:41:18.406Z,1012.73
2022-12-19T19:42:18.365Z,1012.70
2022-12-19T19:43:18.317Z,1012.73
2022-12-19T19:44:18.308Z,1012.71
2022-12-19T19:45:18.227Z,1012.73
2022-12-19T19:46:18.319Z,1012.73
2022-12-19T19:47:18.166Z,1012.77
2022-12-19T19:48:18.093Z,1012.75
2022-12-19T19:49:18.050Z,1012.80
2022-12-19T19:50:18.007Z,1012.84
2022-12-19T19:51:17.964Z,1012.88
2022-12-19T19:52:17.940Z,1012.87
2022-12-19T19:53:17.879Z,1012.87
2022-12-19T19:54:17.931Z,1012.84
2022-12-19T19:55:17.825Z,1012.82
2022-12-19T19:56:17.827Z,1012.78
2022-12-19T19:57:17.778Z,1012.82
2022-12-19T19:58:17.649Z,1012.79
2022-12-19T19:59:17.611Z,1012.77
2022-12-19T20:00:17.562Z,1012.78
2022-12-19T20:01:17.628Z,1012.80
2022-12-19T20:02:17.734Z,1012.81
2022-12-19T20:03:22.474Z,1012.79
2022-12-19T20:04:17.491Z,1012.85
2022-12-19T20:05:17.346Z,1012.83
2022-12-19T20:06:17.294Z,1012.95
2022-12-19T20:07:17.261Z,1012.90
2022-12-19T20:08:17.207Z,1012.91
2022-12-19T20:09:17.238Z,1012.94
2022-12-19T20:10:17.146Z,1012.95
2022-12-19T20:11:17.108Z,1012.92
2022-12-19T20:12:17.030Z,1012.92
2022-12-19T20:13:16.999Z,1012.85
2022-12-19T20:14:16.942Z,1012.85
2022-12-19T20:15:16.902Z,1012.84
2022-12-19T20:16:17.026Z,1012.84
2022-12-19T20:17:16.808Z,1012.82
2022-12-19T20:18:16.785Z,1012.82
2022-12-19T20:19:16.721Z,1012.84
2022-12-19T20:20:16.685Z,1012.78
2022-12-19T20:21:16.632Z,1012.77
2022-12-19T20:22:16.590Z,1012.67
2022-12-19T20:23:16.548Z,1012.63
2022-12-19T20:24:16.496Z,1012.63
2022-12-19T20:25:16.461Z,1012.65
2022-12-19T20:26:16.622Z,1012.63
2022-12-19T20:27:16.362Z,1012.60
2022-12-19T20:28:16.316Z,1012.60
2022-12-19T20:29:16.319Z,1012.61
2022-12-19T20:30:16.232Z,1012.59
2022-12-19T20:31:16.341Z,1012.56
2022-12-19T20:32:16.143Z,1012.57
2022-12-19T20:33:16.104Z,1012.49
2022-12-19T20:34:16.076Z,1012.54
2022-12-19T20:35:16.010Z,1012.52
2022-12-19T20:36:16.020Z,1012.56
2022-12-19T20:37:15.934Z,1012.55
2022-12-19T20:38:15.884Z,1012.49
2022-12-19T20:39:15.830Z,1012.49
2022-12-19T20:40:15.791Z,1012.57
2022-12-19T20:41:15.755Z,1012.62
2022-12-19T20:42:15.698Z,1012.63
2022-12-19T20:43:15.653Z,1012.65
2022-12-19T20:44:22.065Z,1012.62
2022-12-19T20:45:15.569Z,1012.67
2022-12-19T20:46:15.740Z,1012.65
2022-12-19T20:47:15.477Z,1012.73
2022-12-19T20:48:15.430Z,1012.76
2022-12-19T20:49:15.390Z,1012.75
2022-12-19T20:50:15.371Z,1012.73
2022-12-19T20:51:15.295Z,1012.79
2022-12-19T20:52:15.257Z,1012.74
2022-12-19T20:53:15.212Z,1012.75
2022-12-19T20:54:15.168Z,1012.69
2022-12-19T20:55:15.122Z,1012.72
2022-12-19T20:56:15.075Z,1012.71
2022-12-19T20:57:15.038Z,1012.74
2022-12-19T20:58:14.988Z,1012.75
2022-12-19T20:59:14.945Z,1012.76
2022-12-19T21:00:14.903Z,1012.76
2022-12-19T21:01:14.895Z,1012.82
2022-12-19T21:02:14.952Z,1012.80
2022-12-19T21:03:27.887Z,1012.81
2022-12-19T21:04:14.973Z,1012.80
2022-12-19T21:05:14.728Z,1012.79
2022-12-19T21:06:14.664Z,1012.75
2022-12-19T21:07:14.594Z,1012.76
2022-12-19T21:08:14.548Z,1012.76
2022-12-19T21:10:14.460Z,1012.75
2022-12-19T21:11:14.414Z,1012.73
2022-12-19T21:12:14.376Z,1012.74
2022-12-19T21:13:14.325Z,1012.69
2022-12-19T21:14:14.287Z,1012.74
2022-12-19T21:15:14.238Z,1012.64
2022-12-19T21:16:14.554Z,1012.71
2022-12-19T21:17:14.176Z,1012.70
2022-12-19T21:18:14.112Z,1012.67
2022-12-19T21:19:14.061Z,1012.62
2022-12-19T21:20:14.028Z,1012.71
2022-12-19T21:21:13.974Z,1012.67
2022-12-19T21:22:13.976Z,1012.63
2022-12-19T21:23:13.892Z,1012.66
2022-12-19T21:24:13.840Z,1012.69
2022-12-19T21:25:13.794Z,1012.69
2022-12-19T21:26:13.757Z,1012.69
2022-12-19T21:27:13.709Z,1012.67
2022-12-19T21:28:13.662Z,1012.67
2022-12-19T21:29:13.624Z,1012.64
2022-12-19T21:30:13.576Z,1012.58
2022-12-19T21:31:13.597Z,1012.57
2022-12-19T21:32:18.621Z,1012.53
2022-12-19T21:33:13.443Z,1012.56
2022-12-19T21:34:13.401Z,1012.52
2022-12-19T21:35:13.354Z,1012.47
2022-12-19T21:36:13.309Z,1012.47
2022-12-19T21:37:13.262Z,1012.45
2022-12-19T21:38:13.244Z,1012.52
2022-12-19T21:39:13.218Z,1012.47
2022-12-19T21:40:13.143Z,1012.50
2022-12-19T21:41:13.091Z,1012.51
2022-12-19T21:42:13.046Z,1012.44
2022-12-19T21:43:13.000Z,1012.55
2022-12-19T21:44:12.963Z,1012.44
2022-12-19T21:45:12.925Z,1012.42
2022-12-19T21:46:12.985Z,1012.41
2022-12-19T21:47:12.964Z,1012.47
2022-12-19T21:48:12.790Z,1012.46
2022-12-19T21:49:12.756Z,1012.41
2022-12-19T21:50:12.718Z,1012.46
2022-12-19T21:51:12.647Z,1012.55
2022-12-19T21:52:12.603Z,1012.55
2022-12-19T21:53:12.555Z,1012.55
2022-12-19T21:54:12.546Z,1012.47
2022-12-19T21:55:12.467Z,1012.54
2022-12-19T21:56:12.426Z,1012.53
2022-12-19T21:57:12.388Z,1012.61
2022-12-19T21:58:12.344Z,1012.58
2022-12-19T21:59:12.289Z,1012.53
2022-12-19T22:00:12.247Z,1012.51
2022-12-19T22:01:12.234Z,1012.51
2022-12-19T22:02:12.374Z,1012.46
2022-12-19T22:03:14.416Z,1012.43
2022-12-19T22:04:12.197Z,1012.51
2022-12-19T22:05:12.029Z,1012.52
2022-12-19T22:06:11.985Z,1012.49
2022-12-19T22:07:11.948Z,1012.52
2022-12-19T22:08:11.891Z,1012.48
2022-12-19T22:09:11.853Z,1012.49
2022-12-19T22:10:11.835Z,1012.53
2022-12-19T22:11:11.763Z,1012.52
2022-12-19T22:12:11.716Z,1012.52
2022-12-19T22:13:11.679Z,1012.51
2022-12-19T22:14:11.654Z,1012.51
2022-12-19T22:16:11.629Z,1012.51
2022-12-19T22:17:11.513Z,1012.42
2022-12-19T22:19:11.436Z,1012.49
2022-12-19T22:20:11.401Z,1012.51
2022-12-19T22:21:11.341Z,1012.48
2022-12-19T22:22:11.299Z,1012.48
2022-12-19T22:23:13.258Z,1012.41
2022-12-19T22:24:11.215Z,1012.48
2022-12-19T22:25:11.165Z,1012.48
2022-12-19T22:26:11.175Z,1012.44
2022-12-19T22:27:11.089Z,1012.50
2022-12-19T22:28:11.032Z,1012.49
2022-12-19T22:29:10.990Z,1012.47
2022-12-19T22:30:11.538Z,1012.46
2022-12-19T22:31:10.991Z,1012.44
2022-12-19T22:32:10.851Z,1012.50
2022-12-19T22:33:10.811Z,1012.56
2022-12-19T22:34:10.783Z,1012.50
2022-12-19T22:35:10.763Z,1012.47
2022-12-19T22:36:15.031Z,1012.50
2022-12-19T22:37:10.721Z,1012.47
2022-12-19T22:38:10.590Z,1012.51
2022-12-19T22:39:10.543Z,1012.51
2022-12-19T22:40:10.499Z,1012.44
2022-12-19T22:41:10.455Z,1012.50
2022-12-19T22:42:10.440Z,1012.39
2022-12-19T22:43:10.366Z,1012.46
2022-12-19T22:44:10.325Z,1012.40
2022-12-19T22:45:10.257Z,1012.48
2022-12-19T22:46:10.334Z,1012.38
2022-12-19T22:47:10.189Z,1012.42
2022-12-19T22:48:10.159Z,1012.43
2022-12-19T22:49:10.101Z,1012.51
2022-12-19T22:51:10.033Z,1012.43
2022-12-19T22:52:09.967Z,1012.42
2022-12-19T22:53:12.905Z,1012.47
2022-12-19T22:54:09.884Z,1012.44
2022-12-19T22:55:09.915Z,1012.44
2022-12-19T22:56:09.793Z,1012.42
2022-12-19T22:57:09.751Z,1012.43
2022-12-19T22:58:09.724Z,1012.42
2022-12-19T22:59:09.666Z,1012.39
2022-12-19T23:00:09.922Z,1012.46
2022-12-19T23:01:09.573Z,1012.50
2022-12-19T23:02:09.785Z,1012.53
2022-12-19T23:03:09.656Z,1012.47
2022-12-19T23:04:09.804Z,1012.53
2022-12-19T23:05:09.405Z,1012.52
2022-12-19T23:06:09.564Z,1012.52
2022-12-19T23:07:09.315Z,1012.49
2022-12-19T23:08:09.268Z,1012.47
2022-12-19T23:09:09.223Z,1012.48
2022-12-19T23:10:09.158Z,1012.46
2022-12-19T23:11:09.132Z,1012.42
2022-12-19T23:12:09.096Z,1012.49
2022-12-19T23:13:09.031Z,1012.52
2022-12-19T23:14:09.034Z,1012.45
2022-12-19T23:15:08.960Z,1012.39
2022-12-19T23:16:08.969Z,1012.32
2022-12-19T23:17:09.257Z,1012.24
2022-12-19T23:18:09.029Z,1012.08
2022-12-19T23:19:08.783Z,1012.10
2022-12-19T23:20:08.736Z,1012.15
2022-12-19T23:21:09.368Z,1012.09
2022-12-19T23:22:08.649Z,1012.06
2022-12-19T23:23:08.609Z,1012.03
2022-12-19T23:24:08.573Z,1011.99
2022-12-19T23:25:08.514Z,1011.93
2022-12-19T23:26:15.082Z,1011.97
2022-12-19T23:27:08.439Z,1011.86
2022-12-19T23:28:08.381Z,1011.90
2022-12-19T23:29:08.349Z,1011.92
2022-12-19T23:30:08.337Z,1011.90
2022-12-19T23:31:08.253Z,1011.92
2022-12-19T23:32:08.262Z,1011.85
2022-12-19T23:33:08.172Z,1011.84
2022-12-19T23:34:08.111Z,1011.84
2022-12-19T23:35:08.084Z,1011.86
2022-12-19T23:36:08.080Z,1011.84
2022-12-19T23:37:11.259Z,1011.77
2022-12-19T23:38:07.944Z,1011.81
2022-12-19T23:39:07.931Z,1011.82
2022-12-19T23:40:07.897Z,1011.80
2022-12-19T23:41:07.813Z,1011.79
2022-12-19T23:42:07.772Z,1011.81
2022-12-19T23:43:07.723Z,1011.77
2022-12-19T23:44:07.687Z,1011.74
2022-12-19T23:45:07.642Z,1011.78
2022-12-19T23:46:07.654Z,1011.79
2022-12-19T23:47:07.554Z,1011.83
2022-12-19T23:48:07.509Z,1011.81
2022-12-19T23:49:07.543Z,1011.84
2022-12-19T23:50:07.425Z,1011.84
2022-12-19T23:51:07.381Z,1011.89
2022-12-19T23:52:07.328Z,1011.88
2022-12-19T23:53:07.289Z,1011.94
